createdAt,value
2022-11-29T00:01:27.710Z,5.70
2022-11-29T00:03:54.827Z,5.70
2022-11-29T00:06:27.278Z,5.70
2022-11-29T00:09:00.070Z,5.70
2022-11-29T00:11:48.703Z,5.70
2022-11-29T00:14:23.291Z,5.70
2022-11-29T00:16:52.933Z,5.60
2022-11-29T00:19:20.255Z,5.70
2022-11-29T00:21:47.332Z,5.70
2022-11-29T00:24:14.275Z,5.70
2022-11-29T00:26:41.128Z,5.70
2022-11-29T00:29:08.023Z,5.70
2022-11-29T00:31:35.034Z,5.70
2022-11-29T00:34:04.487Z,5.70
2022-11-29T00:36:31.679Z,5.80
2022-11-29T00:38:58.546Z,5.80
2022-11-29T00:41:26.003Z,5.80
2022-11-29T00:43:52.807Z,5.80
2022-11-29T00:46:19.687Z,5.80
2022-11-29T00:48:46.497Z,5.80
2022-11-29T00:51:13.562Z,5.80
2022-11-29T00:53:40.531Z,5.70
2022-11-29T00:56:07.947Z,5.70
2022-11-29T00:58:37.126Z,5.70
2022-11-29T01:01:04.859Z,5.70
2022-11-29T01:03:31.876Z,5.70
2022-11-29T01:06:05.179Z,5.70
2022-11-29T01:08:32.388Z,5.70
2022-11-29T01:11:06.606Z,5.70
2022-11-29T01:13:34.184Z,5.70
2022-11-29T01:16:01.376Z,5.70
2022-11-29T01:18:28.354Z,5.70
2022-11-29T01:21:04.218Z,5.70
2022-11-29T01:23:31.057Z,5.70
2022-11-29T01:26:03.556Z,5.70
2022-11-29T01:28:30.527Z,5.60
2022-11-29T01:30:57.802Z,5.60
2022-11-29T01:33:24.779Z,5.70
2022-11-29T01:35:53.940Z,5.70
2022-11-29T01:38:22.209Z,5.70
2022-11-29T01:40:59.411Z,5.70
2022-11-29T01:43:26.620Z,5.70
2022-11-29T01:45:53.972Z,5.80
2022-11-29T01:48:24.582Z,5.80
2022-11-29T01:50:53.618Z,5.80
2022-11-29T01:53:20.843Z,5.80
2022-11-29T01:55:53.583Z,5.70
2022-11-29T01:58:21.035Z,5.70
2022-11-29T02:00:48.336Z,5.70
2022-11-29T02:03:17.415Z,5.70
2022-11-29T02:05:52.292Z,5.80
2022-11-29T02:08:29.631Z,5.80
2022-11-29T02:11:12.333Z,5.80
2022-11-29T02:13:57.192Z,5.80
2022-11-29T02:16:33.044Z,5.80
2022-11-29T02:19:28.538Z,5.80
2022-11-29T02:22:10.447Z,5.80
2022-11-29T02:24:46.582Z,5.80
2022-11-29T02:27:22.703Z,5.80
2022-11-29T02:30:08.598Z,5.80
2022-11-29T02:33:12.845Z,5.80
2022-11-29T02:35:42.678Z,5.70
2022-11-29T02:38:21.727Z,5.70
2022-11-29T02:40:57.571Z,5.70
2022-11-29T02:43:46.215Z,5.70
2022-11-29T02:46:31.774Z,5.80
2022-11-29T02:49:20.366Z,5.80
2022-11-29T02:52:02.125Z,5.70
2022-11-29T02:54:33.693Z,5.70
2022-11-29T02:57:11.706Z,5.70
2022-11-29T02:59:59.963Z,5.70
2022-11-29T03:02:48.261Z,5.80
2022-11-29T03:05:47.210Z,5.80
2022-11-29T03:09:04.586Z,5.80
2022-11-29T03:12:06.394Z,5.80
2022-11-29T03:15:07.279Z,5.80
2022-11-29T03:18:03.163Z,5.80
2022-11-29T03:21:02.899Z,5.80
2022-11-29T03:23:49.321Z,5.90
2022-11-29T03:26:41.508Z,5.90
2022-11-29T03:29:29.646Z,5.90
2022-11-29T03:32:03.519Z,5.90
2022-11-29T03:34:54.311Z,5.90
2022-11-29T03:37:44.150Z,5.80
2022-11-29T03:40:14.649Z,5.80
2022-11-29T03:42:57.069Z,5.70
2022-11-29T03:45:57.642Z,5.70
2022-11-29T03:48:27.439Z,5.70
2022-11-29T03:50:59.118Z,5.70
2022-11-29T03:53:35.437Z,5.70
2022-11-29T03:56:21.826Z,5.80
2022-11-29T03:59:09.944Z,5.80
2022-11-29T04:01:39.488Z,5.80
2022-11-29T04:04:21.151Z,5.80
2022-11-29T04:07:22.056Z,5.90
2022-11-29T04:09:51.703Z,5.80
2022-11-29T04:12:42.800Z,5.80
2022-11-29T04:15:34.496Z,5.80
2022-11-29T04:18:49.562Z,5.80
2022-11-29T04:21:29.743Z,5.80
2022-11-29T04:24:14.335Z,5.70
2022-11-29T04:26:59.043Z,5.70
2022-11-29T04:29:34.939Z,5.70
2022-11-29T04:32:29.384Z,5.70
2022-11-29T04:35:15.006Z,5.70
2022-11-29T04:38:02.068Z,5.70
2022-11-29T04:40:50.098Z,5.70
2022-11-29T04:43:21.814Z,5.60
2022-11-29T04:46:00.396Z,5.60
2022-11-29T04:48:58.903Z,5.60
2022-11-29T04:52:02.678Z,5.60
2022-11-29T04:55:01.069Z,5.60
2022-11-29T04:57:39.846Z,5.60
2022-11-29T05:00:12.148Z,5.60
2022-11-29T05:02:48.363Z,5.60
2022-11-29T05:05:15.290Z,5.60
2022-11-29T05:08:00.464Z,5.60
2022-11-29T05:10:50.156Z,5.60
2022-11-29T05:14:03.460Z,5.60
2022-11-29T05:16:33.290Z,5.60
2022-11-29T05:19:12.259Z,5.60
2022-11-29T05:21:47.500Z,5.60
2022-11-29T05:24:44.795Z,5.60
2022-11-29T05:27:48.975Z,5.60
2022-11-29T05:30:15.835Z,5.60
2022-11-29T05:32:54.810Z,5.60
2022-11-29T05:35:28.141Z,5.60
2022-11-29T05:38:04.060Z,5.60
2022-11-29T05:40:39.827Z,5.60
2022-11-29T05:43:54.830Z,5.60
2022-11-29T05:46:30.531Z,5.60
2022-11-29T05:49:22.031Z,5.60
2022-11-29T05:52:04.350Z,5.60
2022-11-29T05:54:42.931Z,5.60
2022-11-29T05:57:31.950Z,5.60
2022-11-29T06:00:01.178Z,5.60
2022-11-29T06:02:28.034Z,5.60
2022-11-29T06:05:04.013Z,5.60
2022-11-29T06:07:48.369Z,5.60
2022-11-29T06:10:19.895Z,5.60
2022-11-29T06:13:04.010Z,5.60
2022-11-29T06:15:33.849Z,5.60
2022-11-29T06:18:09.737Z,5.60
2022-11-29T06:20:49.560Z,5.60
2022-11-29T06:23:51.132Z,5.60
2022-11-29T06:26:36.740Z,5.60
2022-11-29T06:29:23.765Z,5.60
2022-11-29T06:32:13.942Z,5.60
2022-11-29T06:35:10.198Z,5.80
2022-11-29T06:37:41.803Z,6.10
2022-11-29T06:40:15.870Z,6.10
2022-11-29T06:42:42.850Z,6.10
2022-11-29T06:45:14.591Z,6.20
2022-11-29T06:48:01.677Z,6.20
2022-11-29T06:50:44.323Z,6.10
2022-11-29T06:53:17.155Z,6.10
2022-11-29T06:56:14.724Z,6.10
2022-11-29T06:58:57.475Z,6.10
2022-11-29T07:01:43.173Z,6.10
2022-11-29T07:04:18.863Z,6.10
2022-11-29T07:06:45.867Z,6.30
2022-11-29T07:09:18.541Z,6.40
2022-11-29T07:11:47.444Z,6.60
2022-11-29T07:14:14.664Z,6.40
2022-11-29T07:17:13.224Z,6.30
2022-11-29T07:19:55.019Z,6.20
2022-11-29T07:22:27.637Z,6.20
2022-11-29T07:25:08.157Z,6.30
2022-11-29T07:27:59.356Z,6.30
2022-11-29T07:30:40.192Z,6.30
2022-11-29T07:33:22.420Z,6.30
2022-11-29T07:36:20.800Z,6.30
2022-11-29T07:38:56.330Z,6.20
2022-11-29T07:41:50.292Z,6.20
2022-11-29T07:44:40.001Z,6.30
2022-11-29T07:47:08.536Z,6.30
2022-11-29T07:49:35.335Z,6.40
2022-11-29T07:52:02.212Z,6.40
2022-11-29T07:54:30.067Z,6.60
2022-11-29T07:56:56.905Z,6.50
2022-11-29T07:59:23.777Z,6.40
2022-11-29T08:01:50.649Z,6.50
2022-11-29T08:04:17.513Z,6.80
2022-11-29T08:06:44.403Z,6.70
2022-11-29T08:09:11.287Z,6.40
2022-11-29T08:11:39.791Z,6.60
2022-11-29T08:14:06.754Z,6.50
2022-11-29T08:16:33.745Z,6.60
2022-11-29T08:19:00.645Z,6.60
2022-11-29T08:21:27.527Z,6.70
2022-11-29T08:23:54.423Z,6.50
2022-11-29T08:26:24.454Z,6.60
2022-11-29T08:28:55.117Z,6.50
2022-11-29T08:31:22.011Z,6.50
2022-11-29T08:33:49.009Z,6.60
2022-11-29T08:36:18.942Z,6.60
2022-11-29T08:38:46.331Z,6.50
2022-11-29T08:41:15.283Z,6.40
2022-11-29T08:43:42.573Z,6.30
2022-11-29T08:46:13.897Z,6.30
2022-11-29T08:48:45.117Z,6.50
2022-11-29T08:51:11.907Z,6.40
2022-11-29T08:53:41.840Z,6.30
2022-11-29T08:56:49.348Z,6.50
2022-11-29T08:58:57.767Z,6.40
2022-11-29T09:01:24.625Z,6.30
2022-11-29T09:04:00.526Z,6.20
2022-11-29T09:06:37.527Z,6.20
2022-11-29T09:09:04.967Z,6.10
2022-11-29T09:11:33.685Z,6.00
2022-11-29T09:14:03.500Z,6.10
2022-11-29T09:16:32.922Z,6.00
2022-11-29T09:19:00.198Z,5.90
2022-11-29T09:21:29.543Z,6.00
2022-11-29T09:23:59.567Z,6.00
2022-11-29T09:26:32.266Z,6.00
2022-11-29T09:29:01.365Z,6.00
2022-11-29T09:31:30.080Z,6.00
2022-11-29T09:33:57.204Z,6.10
2022-11-29T09:36:28.382Z,6.10
2022-11-29T09:38:56.766Z,6.20
2022-11-29T09:41:55.562Z,6.20
2022-11-29T09:44:59.944Z,6.50
2022-11-29T09:47:35.915Z,6.70
2022-11-29T09:50:36.532Z,6.90
2022-11-29T09:53:37.952Z,6.80
2022-11-29T09:56:28.220Z,6.80
2022-11-29T09:59:00.197Z,6.70
2022-11-29T10:01:31.425Z,6.60
2022-11-29T10:04:15.542Z,6.60
2022-11-29T10:06:54.656Z,6.50
2022-11-29T10:09:38.471Z,6.50
2022-11-29T10:12:35.136Z,6.50
2022-11-29T10:15:13.268Z,6.50
2022-11-29T10:17:52.025Z,6.40
2022-11-29T10:20:28.905Z,6.40
2022-11-29T10:23:14.349Z,6.50
2022-11-29T10:25:54.622Z,6.50
2022-11-29T10:28:26.435Z,6.40
2022-11-29T10:30:55.442Z,6.50
2022-11-29T10:33:32.812Z,6.50
2022-11-29T10:36:05.297Z,6.50
2022-11-29T10:38:32.442Z,6.60
2022-11-29T10:41:10.358Z,6.70
2022-11-29T10:43:37.877Z,6.70
2022-11-29T10:46:06.365Z,6.70
2022-11-29T10:48:34.453Z,7.00
2022-11-29T10:51:02.318Z,7.00
2022-11-29T10:53:36.667Z,6.80
2022-11-29T10:56:06.651Z,6.80
2022-11-29T10:58:34.731Z,6.70
2022-11-29T11:01:06.682Z,6.70
2022-11-29T11:03:52.853Z,6.60
2022-11-29T11:06:21.533Z,6.80
2022-11-29T11:08:52.893Z,6.70
2022-11-29T11:11:32.936Z,6.70
2022-11-29T11:14:24.027Z,6.60
2022-11-29T11:16:51.210Z,6.70
2022-11-29T11:19:29.571Z,6.70
2022-11-29T11:21:58.770Z,6.80
2022-11-29T11:24:29.416Z,7.00
2022-11-29T11:26:57.289Z,7.00
2022-11-29T11:29:42.239Z,7.00
2022-11-29T11:32:18.539Z,7.10
2022-11-29T11:34:53.716Z,7.20
2022-11-29T11:37:28.063Z,7.30
2022-11-29T11:40:00.985Z,7.30
2022-11-29T11:42:38.293Z,7.20
2022-11-29T11:45:11.376Z,6.90
2022-11-29T11:47:46.502Z,6.80
2022-11-29T11:50:25.994Z,6.70
2022-11-29T11:52:55.740Z,6.70
2022-11-29T11:55:29.480Z,6.70
2022-11-29T11:58:10.281Z,6.80
2022-11-29T12:01:03.000Z,6.80
2022-11-29T12:03:49.288Z,6.70
2022-11-29T12:06:43.132Z,7.00
2022-11-29T12:09:10.019Z,6.80
2022-11-29T12:12:00.574Z,7.00
2022-11-29T12:14:39.108Z,6.90
2022-11-29T12:17:19.787Z,6.80
2022-11-29T12:19:57.994Z,6.70
2022-11-29T12:22:30.803Z,6.80
2022-11-29T12:25:03.302Z,6.80
2022-11-29T12:27:31.283Z,6.90
2022-11-29T12:29:58.195Z,6.80
2022-11-29T12:32:36.938Z,6.80
2022-11-29T12:35:10.545Z,7.10
2022-11-29T12:37:59.715Z,7.00
2022-11-29T12:40:35.533Z,7.30
2022-11-29T12:43:18.737Z,7.20
2022-11-29T12:46:19.738Z,7.10
2022-11-29T12:48:49.423Z,7.10
2022-11-29T12:51:27.565Z,7.20
2022-11-29T12:54:19.033Z,7.20
2022-11-29T12:56:54.052Z,7.10
2022-11-29T12:59:23.656Z,7.00
2022-11-29T13:01:53.256Z,7.00
2022-11-29T13:04:28.030Z,7.00
2022-11-29T13:07:03.793Z,6.90
2022-11-29T13:10:02.756Z,7.00
2022-11-29T13:12:56.467Z,7.00
2022-11-29T13:15:41.154Z,6.90
2022-11-29T13:18:21.860Z,7.00
2022-11-29T13:21:04.266Z,7.00
2022-11-29T13:24:07.477Z,7.00
2022-11-29T13:26:33.875Z,6.80
2022-11-29T13:29:03.099Z,7.00
2022-11-29T13:31:31.107Z,6.90
2022-11-29T13:34:24.710Z,6.90
2022-11-29T13:37:20.535Z,6.90
2022-11-29T13:39:59.459Z,6.80
2022-11-29T13:42:45.349Z,6.70
2022-11-29T13:45:21.958Z,6.60
2022-11-29T13:47:54.830Z,6.70
2022-11-29T13:50:40.678Z,6.70
2022-11-29T13:53:48.192Z,6.60
2022-11-29T13:56:36.908Z,6.60
2022-11-29T13:59:13.941Z,6.60
2022-11-29T14:01:50.669Z,6.60
2022-11-29T14:04:29.036Z,6.50
2022-11-29T14:07:22.549Z,6.50
2022-11-29T14:09:51.351Z,6.50
2022-11-29T14:12:21.102Z,6.50
2022-11-29T14:14:54.074Z,6.50
2022-11-29T14:17:47.184Z,6.40
2022-11-29T14:20:23.245Z,6.30
2022-11-29T14:23:18.101Z,6.30
2022-11-29T14:26:07.864Z,6.30
2022-11-29T14:28:39.471Z,6.20
2022-11-29T14:31:07.839Z,6.10
2022-11-29T14:33:46.946Z,6.10
2022-11-29T14:36:32.335Z,6.10
2022-11-29T14:39:28.190Z,6.10
2022-11-29T14:42:15.906Z,6.10
2022-11-29T14:44:58.506Z,6.00
2022-11-29T14:47:38.825Z,6.10
2022-11-29T14:50:09.470Z,6.00
2022-11-29T14:52:39.927Z,5.90
2022-11-29T14:55:31.920Z,5.90
2022-11-29T14:58:01.975Z,5.90
2022-11-29T15:00:55.725Z,5.90
2022-11-29T15:03:41.625Z,5.90
2022-11-29T15:06:23.286Z,5.90
2022-11-29T15:09:00.787Z,5.80
2022-11-29T15:11:35.366Z,5.80
2022-11-29T15:14:15.217Z,5.80
2022-11-29T15:16:53.270Z,5.80
2022-11-29T15:19:55.426Z,5.70
2022-11-29T15:22:43.293Z,5.60
2022-11-29T15:25:16.915Z,5.50
2022-11-29T15:28:18.504Z,5.40
2022-11-29T15:30:45.434Z,5.40
2022-11-29T15:33:25.685Z,5.40
2022-11-29T15:35:56.122Z,5.40
2022-11-29T15:38:24.379Z,5.30
2022-11-29T15:40:53.591Z,5.30
2022-11-29T15:43:36.071Z,5.20
2022-11-29T15:46:03.185Z,5.20
2022-11-29T15:48:34.338Z,5.10
2022-11-29T15:51:04.072Z,5.10
2022-11-29T15:53:36.050Z,5.10
2022-11-29T15:56:09.247Z,5.00
2022-11-29T15:58:37.251Z,5.00
2022-11-29T16:01:05.187Z,5.00
2022-11-29T16:03:35.580Z,5.00
2022-11-29T16:06:25.498Z,5.00
2022-11-29T16:08:53.147Z,4.90
2022-11-29T16:11:24.885Z,4.90
2022-11-29T16:14:14.733Z,4.90
2022-11-29T16:16:44.728Z,4.90
2022-11-29T16:19:24.720Z,4.90
2022-11-29T16:22:14.925Z,4.90
2022-11-29T16:25:01.064Z,4.80
2022-11-29T16:27:35.205Z,4.80
2022-11-29T16:30:02.808Z,4.80
2022-11-29T16:32:32.571Z,4.80
2022-11-29T16:35:12.540Z,4.80
2022-11-29T16:37:42.082Z,4.80
2022-11-29T16:40:32.762Z,4.80
2022-11-29T16:43:40.784Z,4.70
2022-11-29T16:46:27.371Z,4.70
2022-11-29T16:48:56.041Z,4.60
2022-11-29T16:51:48.077Z,4.70
2022-11-29T16:54:21.179Z,4.60
2022-11-29T16:56:48.530Z,4.60
2022-11-29T16:59:24.668Z,4.60
2022-11-29T17:01:54.654Z,4.60
2022-11-29T17:04:23.617Z,4.50
2022-11-29T17:06:55.378Z,4.50
2022-11-29T17:09:28.071Z,4.50
2022-11-29T17:11:56.151Z,4.50
2022-11-29T17:14:23.117Z,4.50
2022-11-29T17:16:50.198Z,4.50
2022-11-29T17:19:17.899Z,4.50
2022-11-29T17:21:45.282Z,4.50
2022-11-29T17:24:14.468Z,4.50
2022-11-29T17:26:42.440Z,4.50
2022-11-29T17:29:13.882Z,4.50
2022-11-29T17:31:42.409Z,4.40
2022-11-29T17:34:09.527Z,4.40
2022-11-29T17:36:36.946Z,4.40
2022-11-29T17:39:04.814Z,4.40
2022-11-29T17:41:32.807Z,4.40
2022-11-29T17:43:59.854Z,4.30
2022-11-29T17:46:31.717Z,4.30
2022-11-29T17:49:00.343Z,4.30
2022-11-29T17:54:14.735Z,4.40
2022-11-29T17:56:41.534Z,4.40
2022-11-29T17:59:08.486Z,4.30
2022-11-29T18:01:36.454Z,4.30
2022-11-29T18:04:06.262Z,4.30
2022-11-29T18:06:38.751Z,4.30
2022-11-29T18:09:08.390Z,4.40
2022-11-29T18:11:47.608Z,4.40
2022-11-29T18:14:28.186Z,4.40
2022-11-29T18:16:55.344Z,4.40
2022-11-29T18:19:23.642Z,4.40
2022-11-29T18:21:51.300Z,4.40
2022-11-29T18:24:18.480Z,4.40
2022-11-29T18:26:45.769Z,4.40
2022-11-29T18:29:12.612Z,4.40
2022-11-29T18:31:41.818Z,4.40
2022-11-29T18:34:10.724Z,4.40
2022-11-29T18:36:48.684Z,4.50
2022-11-29T18:39:18.216Z,4.50
2022-11-29T18:41:48.884Z,4.50
2022-11-29T18:44:17.780Z,4.50
2022-11-29T18:46:46.009Z,4.50
2022-11-29T18:49:15.267Z,4.50
2022-11-29T18:51:44.571Z,4.50
2022-11-29T18:54:12.102Z,4.50
2022-11-29T18:56:39.552Z,4.50
2022-11-29T18:59:12.125Z,4.50
2022-11-29T19:01:42.529Z,4.50
2022-11-29T19:04:15.265Z,4.40
2022-11-29T19:06:42.763Z,4.50
2022-11-29T19:09:17.406Z,4.50
2022-11-29T19:11:44.207Z,4.50
2022-11-29T19:14:12.755Z,4.60
2022-11-29T19:16:43.242Z,4.60
2022-11-29T19:19:10.594Z,4.60
2022-11-29T19:21:39.670Z,4.60
2022-11-29T19:24:13.616Z,4.60
2022-11-29T19:26:41.663Z,4.50
2022-11-29T19:29:08.514Z,4.50
2022-11-29T19:31:35.414Z,4.50
2022-11-29T19:34:02.265Z,4.50
2022-11-29T19:36:30.849Z,4.50
2022-11-29T19:39:01.673Z,4.40
2022-11-29T19:41:32.892Z,4.40
2022-11-29T19:44:05.706Z,4.40
2022-11-29T19:46:35.520Z,4.50
2022-11-29T19:49:04.778Z,4.50
2022-11-29T19:51:31.775Z,4.50
2022-11-29T19:54:01.267Z,4.50
2022-11-29T19:56:29.527Z,4.50
2022-11-29T19:58:56.715Z,4.50
2022-11-29T20:01:27.985Z,4.50
2022-11-29T20:03:58.915Z,4.50
2022-11-29T20:06:30.122Z,4.40
2022-11-29T20:08:57.958Z,4.50
2022-11-29T20:11:25.885Z,4.50
2022-11-29T20:13:58.274Z,4.50
2022-11-29T20:16:26.806Z,4.50
2022-11-29T20:18:54.198Z,4.50
2022-11-29T20:21:24.236Z,4.50
2022-11-29T20:23:55.648Z,4.40
2022-11-29T20:26:23.721Z,4.40
2022-11-29T20:28:50.601Z,4.40
2022-11-29T20:31:21.465Z,4.40
2022-11-29T20:33:49.610Z,4.30
2022-11-29T20:36:22.533Z,4.30
2022-11-29T20:39:22.411Z,4.30
2022-11-29T20:42:26.669Z,4.20
2022-11-29T20:44:57.660Z,4.20
2022-11-29T20:47:42.249Z,4.20
2022-11-29T20:50:20.524Z,4.30
2022-11-29T20:52:49.812Z,4.20
2022-11-29T20:55:16.719Z,4.20
2022-11-29T20:57:43.673Z,4.10
2022-11-29T21:00:11.844Z,4.10
2022-11-29T21:02:39.126Z,4.00
2022-11-29T21:05:06.853Z,4.00
2022-11-29T21:07:33.946Z,3.90
2022-11-29T21:10:01.545Z,3.90
2022-11-29T21:12:30.285Z,3.90
2022-11-29T21:14:57.911Z,3.90
2022-11-29T21:17:30.213Z,3.90
2022-11-29T21:20:00.656Z,3.90
2022-11-29T21:22:51.455Z,3.80
2022-11-29T21:25:33.287Z,3.80
2022-11-29T21:28:00.928Z,3.80
2022-11-29T21:30:27.949Z,3.80
2022-11-29T21:32:55.010Z,3.80
2022-11-29T21:35:21.856Z,3.80
2022-11-29T21:37:54.275Z,3.70
2022-11-29T21:40:21.083Z,3.70
2022-11-29T21:42:47.873Z,3.70
2022-11-29T21:45:16.006Z,3.70
2022-11-29T21:47:44.203Z,3.60
2022-11-29T21:50:12.629Z,3.60
2022-11-29T21:52:39.947Z,3.50
2022-11-29T21:55:07.206Z,3.50
2022-11-29T21:57:33.986Z,3.50
2022-11-29T22:00:00.845Z,3.50
2022-11-29T22:02:27.845Z,3.50
2022-11-29T22:04:54.733Z,3.50
2022-11-29T22:07:21.558Z,3.50
2022-11-29T22:09:48.399Z,3.50
2022-11-29T22:12:33.177Z,3.40
2022-11-29T22:15:00.814Z,3.40
2022-11-29T22:17:27.617Z,3.40
2022-11-29T22:19:54.445Z,3.30
2022-11-29T22:22:21.237Z,3.30
2022-11-29T22:24:48.269Z,3.30
2022-11-29T22:27:17.735Z,3.30
2022-11-29T22:29:45.103Z,3.30
2022-11-29T22:32:11.915Z,3.30
2022-11-29T22:34:38.826Z,3.20
2022-11-29T22:37:05.678Z,3.20
2022-11-29T22:39:32.558Z,3.10
2022-11-29T22:41:59.365Z,3.10
2022-11-29T22:44:26.227Z,3.00
2022-11-29T22:46:53.194Z,3.00
2022-11-29T22:49:20.194Z,3.00
2022-11-29T22:51:47.127Z,2.90
2022-11-29T22:54:17.432Z,2.90
2022-11-29T22:56:45.287Z,2.80
2022-11-29T22:59:12.138Z,2.80
2022-11-29T23:01:40.835Z,2.80
2022-11-29T23:04:09.123Z,2.80
2022-11-29T23:06:44.915Z,2.80
2022-11-29T23:09:22.170Z,2.80
2022-11-29T23:11:54.253Z,2.80
2022-11-29T23:14:22.254Z,2.80
2022-11-29T23:16:49.239Z,2.80
2022-11-29T23:19:16.582Z,2.80
2022-11-29T23:21:45.791Z,2.80
2022-11-29T23:24:13.585Z,2.80
2022-11-29T23:26:43.495Z,2.90
2022-11-29T23:29:13.056Z,2.90
2022-11-29T23:31:40.584Z,2.90
2022-11-29T23:34:07.932Z,2.80
2022-11-29T23:36:35.005Z,2.80
2022-11-29T23:39:01.829Z,2.80
2022-11-29T23:41:28.763Z,2.70
2022-11-29T23:43:55.665Z,2.60
2022-11-29T23:46:23.924Z,2.60
2022-11-29T23:48:51.393Z,2.50
2022-11-29T23:51:19.406Z,2.40
2022-11-29T23:53:50.400Z,2.40
2022-11-29T23:56:18.562Z,2.30
2022-11-29T23:58:45.973Z,2.30
